QFA63 YSSY-FAOR
Flight info
| Callsign | QFA63 |
|---|---|
| Flight time | N/A |
| Altitude | 34000 |
| Route | WOL J42 AY T8 CRENA DCT 3900S13304E 4027S12633E 4159S11901E/N0483F360 4222S11706E 4319S11055E 4352S10438E 4403S09638E 4337S08827E/N0483F380 4250S08245E 4156S07648E 4137S07500E 4134S07441E 4027S06745E 3856S06117E 3759S05700E 3719S05426E 3553S04842E/N0484F400 3356S04150E 3112S03545E 2956S03349E DCT EPSAK DCT AVILO AVILO1B |
| Aircraft | A388/J-SADE2E3FGHIJ3J4J5M1RWXY/LB1D1 |
Departure
| Time | 2026-05-06 05:41 |
|---|---|
| Airport | Sydney Kingsford Smith International Airport (YSSY) |
Arrival
| Time | N/A |
|---|---|
| Airport | O.R. Tambo International Airport (FAOR) |
| Time | Latitude | Longitude | Altitude | Speed | Heading |
|---|---|---|---|---|---|
| 2026-05-06 04:30 | -33.93619 | 151.16921 | 35 ft | 0 kts | 178° |
| 2026-05-06 05:17 | -33.93607 | 151.16920 | 51 ft | 2 kts | 177° |
| 2026-05-06 05:17 | -33.93590 | 151.16920 | 56 ft | 2 kts | 176° |
| 2026-05-06 05:18 | -33.93574 | 151.16919 | 34 ft | 2 kts | 177° |
| 2026-05-06 05:18 | -33.93558 | 151.16918 | 33 ft | 2 kts | 179° |
| 2026-05-06 05:18 | -33.93541 | 151.16918 | 34 ft | 2 kts | 179° |
| 2026-05-06 05:18 | -33.93525 | 151.16918 | 33 ft | 2 kts | 178° |
| 2026-05-06 05:19 | -33.93508 | 151.16917 | 35 ft | 2 kts | 178° |
| 2026-05-06 05:19 | -33.93492 | 151.16916 | 34 ft | 2 kts | 176° |
| 2026-05-06 05:19 | -33.93478 | 151.16914 | 34 ft | 1 kts | 171° |
| 2026-05-06 05:19 | -33.93476 | 151.16914 | 34 ft | 0 kts | 169° |
| 2026-05-06 05:23 | -33.93477 | 151.16914 | 35 ft | 0 kts | 169° |
| 2026-05-06 05:24 | -33.93489 | 151.16917 | 35 ft | 3 kts | 169° |
| 2026-05-06 05:24 | -33.93506 | 151.16922 | 35 ft | 1 kts | 140° |
| 2026-05-06 05:24 | -33.93508 | 151.16925 | 35 ft | 1 kts | 124° |
| 2026-05-06 05:24 | -33.93511 | 151.16932 | 35 ft | 1 kts | 110° |
| 2026-05-06 05:25 | -33.93514 | 151.16945 | 35 ft | 2 kts | 92° |
| 2026-05-06 05:25 | -33.93511 | 151.16970 | 35 ft | 4 kts | 76° |
| 2026-05-06 05:25 | -33.93506 | 151.16996 | 35 ft | 4 kts | 76° |
| 2026-05-06 05:25 | -33.93498 | 151.17034 | 35 ft | 6 kts | 76° |
| 2026-05-06 05:26 | -33.93485 | 151.17069 | 35 ft | 4 kts | 38° |
| 2026-05-06 05:26 | -33.93452 | 151.17085 | 34 ft | 6 kts | 6° |
| 2026-05-06 05:26 | -33.93404 | 151.17079 | 35 ft | 7 kts | 347° |
| 2026-05-06 05:26 | -33.93356 | 151.17061 | 35 ft | 8 kts | 334° |
| 2026-05-06 05:27 | -33.93305 | 151.17016 | 35 ft | 11 kts | 314° |
| 2026-05-06 05:27 | -33.93246 | 151.16962 | 35 ft | 11 kts | 347° |
| 2026-05-06 05:27 | -33.93162 | 151.16939 | 35 ft | 13 kts | 347° |
| 2026-05-06 05:27 | -33.93148 | 151.16935 | 35 ft | 0 kts | 348° |
| 2026-05-06 05:28 | -33.93145 | 151.16934 | 35 ft | 0 kts | 348° |
| 2026-05-06 05:35 | -33.93142 | 151.16934 | 35 ft | 3 kts | 348° |
| 2026-05-06 05:35 | -33.93095 | 151.16922 | 35 ft | 9 kts | 348° |
| 2026-05-06 05:35 | -33.93081 | 151.16918 | 35 ft | 2 kts | 349° |
| 2026-05-06 05:36 | -33.93052 | 151.16912 | 35 ft | 6 kts | 349° |
| 2026-05-06 05:36 | -33.93010 | 151.16906 | 35 ft | 3 kts | 27° |
| 2026-05-06 05:36 | -33.92996 | 151.16923 | 35 ft | 4 kts | 60° |
| 2026-05-06 05:36 | -33.92984 | 151.16960 | 35 ft | 6 kts | 73° |
| 2026-05-06 05:37 | -33.92974 | 151.17011 | 35 ft | 5 kts | 76° |
| 2026-05-06 05:37 | -33.92974 | 151.17012 | 35 ft | 0 kts | 76° |
| 2026-05-06 05:38 | -33.92973 | 151.17017 | 35 ft | 2 kts | 76° |
| 2026-05-06 05:39 | -33.92968 | 151.17043 | 35 ft | 4 kts | 77° |
| 2026-05-06 05:39 | -33.92959 | 151.17088 | 35 ft | 6 kts | 76° |
| 2026-05-06 05:39 | -33.92948 | 151.17144 | 36 ft | 5 kts | 92° |
| 2026-05-06 05:39 | -33.92953 | 151.17158 | 36 ft | 1 kts | 147° |
| 2026-05-06 05:40 | -33.93016 | 151.17181 | 35 ft | 33 kts | 164° |
| 2026-05-06 05:40 | -33.93492 | 151.17305 | 32 ft | 104 kts | 167° |
| 2026-05-06 05:40 | -33.94379 | 151.17557 | 36 ft | 153 kts | 166° |
| 2026-05-06 05:40 | -33.95114 | 151.17778 | 100 ft | 170 kts | 164° |
| 2026-05-06 05:41 | -33.96265 | 151.18083 | 587 ft | 172 kts | 171° |
| 2026-05-06 05:41 | -33.97502 | 151.18031 | 1007 ft | 178 kts | 187° |
| 2026-05-06 05:41 | -33.98764 | 151.17800 | 1355 ft | 188 kts | 187° |
| 2026-05-06 05:41 | -34.00054 | 151.17628 | 1484 ft | 202 kts | 184° |
| 2026-05-06 05:42 | -34.01538 | 151.17530 | 1596 ft | 215 kts | 181° |
| 2026-05-06 05:42 | -34.03068 | 151.17612 | 1688 ft | 230 kts | 169° |
| 2026-05-06 05:42 | -34.04652 | 151.18139 | 1901 ft | 248 kts | 161° |
| 2026-05-06 05:42 | -34.06362 | 151.18772 | 2249 ft | 263 kts | 164° |
| 2026-05-06 05:43 | -34.08185 | 151.19374 | 2893 ft | 267 kts | 165° |
| 2026-05-06 05:43 | -34.09988 | 151.19957 | 3560 ft | 269 kts | 166° |
| 2026-05-06 05:43 | -34.11774 | 151.20541 | 4196 ft | 273 kts | 166° |
| 2026-05-06 05:43 | -34.13618 | 151.21150 | 4854 ft | 276 kts | 165° |
| 2026-05-06 05:44 | -34.15491 | 151.21772 | 5488 ft | 279 kts | 165° |
| 2026-05-06 05:44 | -34.17371 | 151.22400 | 6135 ft | 281 kts | 165° |
| 2026-05-06 05:44 | -34.19298 | 151.22780 | 6736 ft | 283 kts | 185° |
| 2026-05-06 05:44 | -34.21161 | 151.22167 | 7345 ft | 281 kts | 212° |
| 2026-05-06 05:45 | -34.22636 | 151.20690 | 7950 ft | 280 kts | 229° |
| 2026-05-06 05:45 | -34.23953 | 151.18899 | 8576 ft | 282 kts | 231° |
| 2026-05-06 05:45 | -34.25236 | 151.17155 | 9208 ft | 284 kts | 230° |
| 2026-05-06 05:45 | -34.26603 | 151.15370 | 9857 ft | 287 kts | 229° |
| 2026-05-06 05:46 | -34.27988 | 151.13619 | 10263 ft | 297 kts | 228° |
| 2026-05-06 05:46 | -34.29481 | 151.11759 | 10417 ft | 314 kts | 228° |
| 2026-05-06 05:46 | -34.31041 | 151.09828 | 10563 ft | 330 kts | 227° |
| 2026-05-06 05:46 | -34.32659 | 151.07830 | 10922 ft | 337 kts | 227° |
| 2026-05-06 05:47 | -34.34305 | 151.05801 | 11488 ft | 338 kts | 228° |
| 2026-05-06 05:47 | -34.35962 | 151.03753 | 12044 ft | 340 kts | 228° |
| 2026-05-06 05:47 | -34.37626 | 151.01695 | 12591 ft | 342 kts | 228° |
| 2026-05-06 05:47 | -34.39284 | 150.99640 | 13132 ft | 344 kts | 228° |
| 2026-05-06 05:48 | -34.40965 | 150.97555 | 13677 ft | 346 kts | 228° |
| 2026-05-06 05:48 | -34.42648 | 150.95466 | 14173 ft | 348 kts | 229° |
| 2026-05-06 05:48 | -34.44342 | 150.93363 | 14636 ft | 350 kts | 229° |
| 2026-05-06 05:48 | -34.46049 | 150.91241 | 15091 ft | 352 kts | 229° |
| 2026-05-06 05:49 | -34.47744 | 150.89133 | 15549 ft | 355 kts | 229° |
| 2026-05-06 05:49 | -34.49473 | 150.86984 | 16017 ft | 357 kts | 229° |
| 2026-05-06 05:49 | -34.51225 | 150.84802 | 16462 ft | 360 kts | 229° |
| 2026-05-06 05:49 | -34.52958 | 150.82643 | 16904 ft | 362 kts | 229° |
| 2026-05-06 05:50 | -34.54708 | 150.80437 | 17341 ft | 364 kts | 231° |
| 2026-05-06 05:50 | -34.56267 | 150.78010 | 17787 ft | 364 kts | 239° |
| 2026-05-06 05:50 | -34.57534 | 150.75382 | 18194 ft | 365 kts | 244° |
| 2026-05-06 05:50 | -34.58765 | 150.72655 | 18609 ft | 367 kts | 243° |
| 2026-05-06 05:51 | -34.60014 | 150.69960 | 19017 ft | 368 kts | 243° |
| 2026-05-06 05:51 | -34.61282 | 150.67238 | 19404 ft | 370 kts | 243° |
| 2026-05-06 05:51 | -34.62547 | 150.64517 | 19790 ft | 372 kts | 243° |
| 2026-05-06 05:51 | -34.63816 | 150.61778 | 20178 ft | 373 kts | 243° |
| 2026-05-06 05:52 | -34.65082 | 150.59041 | 20536 ft | 374 kts | 243° |
| 2026-05-06 05:52 | -34.66362 | 150.56271 | 20877 ft | 376 kts | 243° |
| 2026-05-06 05:52 | -34.67638 | 150.53502 | 21241 ft | 378 kts | 243° |
| 2026-05-06 05:52 | -34.68925 | 150.50704 | 21590 ft | 380 kts | 243° |
| 2026-05-06 05:53 | -34.70219 | 150.47892 | 21966 ft | 381 kts | 243° |
| 2026-05-06 05:53 | -34.71509 | 150.45087 | 22303 ft | 383 kts | 243° |
| 2026-05-06 05:53 | -34.72777 | 150.42326 | 22686 ft | 384 kts | 243° |
| 2026-05-06 05:53 | -34.74092 | 150.39460 | 23009 ft | 386 kts | 243° |
| 2026-05-06 05:54 | -34.75398 | 150.36613 | 23372 ft | 387 kts | 243° |
| 2026-05-06 05:54 | -34.76716 | 150.33737 | 23705 ft | 389 kts | 243° |
| 2026-05-06 05:54 | -34.78037 | 150.30850 | 23989 ft | 391 kts | 243° |
| 2026-05-06 05:54 | -34.79362 | 150.27957 | 24264 ft | 393 kts | 243° |
| 2026-05-06 05:55 | -34.80671 | 150.25092 | 24530 ft | 395 kts | 243° |
| 2026-05-06 05:55 | -34.82018 | 150.22144 | 24829 ft | 397 kts | 243° |
| 2026-05-06 05:55 | -34.83365 | 150.19190 | 25111 ft | 399 kts | 243° |
| 2026-05-06 05:55 | -34.84711 | 150.16237 | 25423 ft | 401 kts | 243° |
| 2026-05-06 05:56 | -34.86059 | 150.13278 | 25704 ft | 403 kts | 243° |
| 2026-05-06 05:56 | -34.87434 | 150.10256 | 26008 ft | 405 kts | 244° |
| 2026-05-06 05:56 | -34.88810 | 150.07230 | 26314 ft | 408 kts | 244° |
| 2026-05-06 05:56 | -34.90192 | 150.04189 | 26619 ft | 410 kts | 244° |
| 2026-05-06 05:57 | -34.91578 | 150.01136 | 26976 ft | 412 kts | 244° |
| 2026-05-06 05:57 | -34.92948 | 149.98116 | 27287 ft | 414 kts | 244° |
| 2026-05-06 05:57 | -34.94367 | 149.94985 | 27636 ft | 417 kts | 244° |
| 2026-05-06 05:57 | -34.95767 | 149.91890 | 27955 ft | 419 kts | 244° |
| 2026-05-06 05:58 | -34.97165 | 149.88801 | 28292 ft | 422 kts | 244° |
| 2026-05-06 05:58 | -34.98585 | 149.85660 | 28606 ft | 425 kts | 244° |
| 2026-05-06 05:58 | -35.00029 | 149.82462 | 28952 ft | 427 kts | 244° |
| 2026-05-06 05:58 | -35.01447 | 149.79318 | 29271 ft | 429 kts | 244° |
| 2026-05-06 05:59 | -35.02874 | 149.76150 | 29610 ft | 432 kts | 244° |
| 2026-05-06 05:59 | -35.04321 | 149.72936 | 29952 ft | 434 kts | 244° |
| 2026-05-06 05:59 | -35.05806 | 149.69635 | 30271 ft | 437 kts | 244° |
| 2026-05-06 05:59 | -35.07266 | 149.66387 | 30588 ft | 439 kts | 244° |
| 2026-05-06 06:00 | -35.08737 | 149.63110 | 30897 ft | 441 kts | 244° |
| 2026-05-06 06:00 | -35.09935 | 149.60439 | 31137 ft | 442 kts | 244° |
| 2026-05-06 06:00 | -35.11428 | 149.57114 | 31489 ft | 443 kts | 245° |
| 2026-05-06 06:00 | -35.12909 | 149.53803 | 31714 ft | 447 kts | 245° |
| 2026-05-06 06:01 | -35.14421 | 149.50420 | 32035 ft | 448 kts | 245° |
| 2026-05-06 06:01 | -35.15905 | 149.47099 | 32336 ft | 450 kts | 245° |
| 2026-05-06 06:01 | -35.17426 | 149.43690 | 32610 ft | 453 kts | 245° |
| 2026-05-06 06:01 | -35.18911 | 149.40361 | 32901 ft | 454 kts | 245° |
| 2026-05-06 06:02 | -35.20427 | 149.36959 | 33175 ft | 457 kts | 245° |
| 2026-05-06 06:02 | -35.21948 | 149.33542 | 33462 ft | 459 kts | 245° |
| 2026-05-06 06:02 | -35.23479 | 149.30098 | 33744 ft | 461 kts | 245° |
| 2026-05-06 06:02 | -35.24987 | 149.26704 | 34031 ft | 463 kts | 245° |
| 2026-05-06 06:03 | -35.28097 | 149.19656 | 34101 ft | 476 kts | 247° |
| 2026-05-06 06:03 | -35.30787 | 149.12312 | 34101 ft | 471 kts | 249° |
| 2026-05-06 06:04 | -35.33470 | 149.04989 | 34099 ft | 471 kts | 249° |
| 2026-05-06 06:04 | -35.36152 | 148.97647 | 34095 ft | 471 kts | 250° |
| 2026-05-06 06:05 | -35.38801 | 148.90361 | 34099 ft | 471 kts | 250° |
| 2026-05-06 06:05 | -35.41477 | 148.82977 | 34099 ft | 471 kts | 250° |
| 2026-05-06 06:06 | -35.44116 | 148.75684 | 34091 ft | 470 kts | 250° |
| 2026-05-06 06:06 | -35.46761 | 148.68350 | 34090 ft | 470 kts | 250° |
| 2026-05-06 06:07 | -35.49399 | 148.61020 | 34102 ft | 469 kts | 250° |
| 2026-05-06 06:07 | -35.52003 | 148.53765 | 34106 ft | 469 kts | 250° |
| 2026-05-06 06:08 | -35.54615 | 148.46473 | 34099 ft | 468 kts | 250° |
| 2026-05-06 06:08 | -35.57249 | 148.39109 | 34097 ft | 467 kts | 250° |
| 2026-05-06 06:09 | -35.59839 | 148.31844 | 34108 ft | 467 kts | 250° |
| 2026-05-06 06:09 | -35.62455 | 148.24492 | 34109 ft | 467 kts | 250° |
| 2026-05-06 06:10 | -35.65030 | 148.17236 | 34114 ft | 466 kts | 250° |
| 2026-05-06 06:10 | -35.67625 | 148.09907 | 34122 ft | 467 kts | 250° |
| 2026-05-06 06:11 | -35.70213 | 148.02578 | 34121 ft | 467 kts | 250° |
| 2026-05-06 06:11 | -35.72802 | 147.95230 | 34131 ft | 467 kts | 250° |
| 2026-05-06 06:12 | -35.75377 | 147.87908 | 34131 ft | 466 kts | 251° |
| 2026-05-06 06:12 | -35.77938 | 147.80609 | 34131 ft | 466 kts | 251° |
| 2026-05-06 06:13 | -35.80503 | 147.73277 | 34138 ft | 466 kts | 251° |
| 2026-05-06 06:13 | -35.83068 | 147.65931 | 34140 ft | 465 kts | 251° |
| 2026-05-06 06:14 | -35.85613 | 147.58604 | 34145 ft | 464 kts | 251° |
| 2026-05-06 06:14 | -35.88131 | 147.51291 | 34138 ft | 463 kts | 251° |
| 2026-05-06 06:15 | -35.90627 | 147.44035 | 34139 ft | 462 kts | 251° |
| 2026-05-06 06:15 | -35.93134 | 147.36735 | 34137 ft | 462 kts | 251° |
| 2026-05-06 06:16 | -35.95640 | 147.29419 | 34132 ft | 461 kts | 251° |
| 2026-05-06 06:16 | -35.98131 | 147.22131 | 34140 ft | 460 kts | 251° |
| 2026-05-06 06:17 | -36.00620 | 147.14830 | 34146 ft | 460 kts | 251° |
| 2026-05-06 06:17 | -36.03099 | 147.07542 | 34144 ft | 460 kts | 251° |
| 2026-05-06 06:18 | -36.05573 | 147.00250 | 34134 ft | 460 kts | 251° |
| 2026-05-06 06:18 | -36.07634 | 146.92858 | 34139 ft | 454 kts | 259° |
| 2026-05-06 06:19 | -36.09241 | 146.85304 | 34138 ft | 454 kts | 259° |
| 2026-05-06 06:19 | -36.10883 | 146.77763 | 34144 ft | 454 kts | 259° |
| 2026-05-06 06:20 | -36.12517 | 146.70221 | 34140 ft | 454 kts | 259° |
| 2026-05-06 06:20 | -36.14135 | 146.62705 | 34142 ft | 453 kts | 259° |
| 2026-05-06 06:21 | -36.15751 | 146.55164 | 34144 ft | 453 kts | 259° |
| 2026-05-06 06:21 | -36.17361 | 146.47622 | 34142 ft | 453 kts | 259° |
| 2026-05-06 06:22 | -36.18691 | 146.41372 | 34143 ft | 452 kts | 259° |
| 2026-05-06 06:22 | -36.20291 | 146.33835 | 34143 ft | 452 kts | 259° |
| 2026-05-06 06:23 | -36.21881 | 146.26319 | 34143 ft | 451 kts | 259° |
| 2026-05-06 06:23 | -36.23464 | 146.18809 | 34140 ft | 450 kts | 259° |
| 2026-05-06 06:24 | -36.25045 | 146.11282 | 34138 ft | 450 kts | 260° |
| 2026-05-06 06:24 | -36.26610 | 146.03809 | 34135 ft | 449 kts | 260° |
| 2026-05-06 06:25 | -36.28166 | 145.96351 | 34135 ft | 448 kts | 260° |
| 2026-05-06 06:26 | -36.30495 | 145.85145 | 34129 ft | 448 kts | 260° |
| 2026-05-06 06:26 | -36.32049 | 145.77636 | 34130 ft | 447 kts | 260° |
| 2026-05-06 06:27 | -36.33586 | 145.70177 | 34134 ft | 447 kts | 260° |
| 2026-05-06 06:27 | -36.35122 | 145.62703 | 34133 ft | 447 kts | 260° |
| 2026-05-06 06:28 | -36.36662 | 145.55184 | 34128 ft | 447 kts | 260° |
| 2026-05-06 06:28 | -36.38190 | 145.47697 | 34128 ft | 446 kts | 260° |
| 2026-05-06 06:29 | -36.39704 | 145.40256 | 34124 ft | 446 kts | 261° |
| 2026-05-06 06:29 | -36.41216 | 145.32791 | 34117 ft | 446 kts | 261° |
| 2026-05-06 06:30 | -36.42725 | 145.25322 | 34115 ft | 445 kts | 261° |
| 2026-05-06 06:30 | -36.44226 | 145.17867 | 34114 ft | 445 kts | 261° |
| 2026-05-06 06:31 | -36.45713 | 145.10454 | 34112 ft | 444 kts | 261° |
| 2026-05-06 06:31 | -36.47205 | 145.02988 | 34105 ft | 444 kts | 261° |
| 2026-05-06 06:32 | -36.48687 | 144.95548 | 34106 ft | 444 kts | 261° |
| 2026-05-06 06:32 | -36.50164 | 144.88110 | 34106 ft | 444 kts | 261° |
| 2026-05-06 06:33 | -36.51636 | 144.80666 | 34096 ft | 443 kts | 261° |
| 2026-05-06 06:33 | -36.53090 | 144.73289 | 34107 ft | 443 kts | 261° |
| 2026-05-06 06:34 | -36.54553 | 144.65838 | 34086 ft | 443 kts | 261° |
| 2026-05-06 06:34 | -36.56008 | 144.58404 | 34084 ft | 443 kts | 261° |
| 2026-05-06 06:35 | -36.57462 | 144.50951 | 34088 ft | 443 kts | 261° |
| 2026-05-06 06:35 | -36.58909 | 144.43502 | 34091 ft | 443 kts | 261° |
| 2026-05-06 06:36 | -36.60270 | 144.36474 | 34100 ft | 442 kts | 261° |
| 2026-05-06 06:36 | -36.61708 | 144.29027 | 34097 ft | 442 kts | 261° |
| 2026-05-06 06:37 | -36.63139 | 144.21586 | 34098 ft | 442 kts | 261° |
| 2026-05-06 06:37 | -36.64564 | 144.14148 | 34092 ft | 441 kts | 261° |
| 2026-05-06 06:38 | -36.65982 | 144.06718 | 34089 ft | 441 kts | 261° |
| 2026-05-06 06:38 | -36.67392 | 143.99305 | 34095 ft | 440 kts | 261° |
| 2026-05-06 06:39 | -36.68797 | 143.91890 | 34095 ft | 439 kts | 261° |
| 2026-05-06 06:39 | -36.70194 | 143.84492 | 34089 ft | 439 kts | 261° |
| 2026-05-06 06:40 | -36.71588 | 143.77078 | 34091 ft | 438 kts | 261° |
| 2026-05-06 06:40 | -36.72981 | 143.69652 | 34085 ft | 438 kts | 261° |
| 2026-05-06 06:41 | -36.74354 | 143.62301 | 34087 ft | 437 kts | 261° |
| 2026-05-06 06:41 | -36.75730 | 143.54908 | 34091 ft | 437 kts | 261° |
| 2026-05-06 06:42 | -36.77096 | 143.47533 | 34095 ft | 437 kts | 261° |
| 2026-05-06 06:42 | -36.78457 | 143.40166 | 34098 ft | 437 kts | 261° |
| 2026-05-06 06:43 | -36.79819 | 143.32770 | 34097 ft | 436 kts | 261° |
| 2026-05-06 06:43 | -36.81161 | 143.25448 | 34094 ft | 436 kts | 261° |
| 2026-05-06 06:44 | -36.82520 | 143.18015 | 34102 ft | 436 kts | 261° |
| 2026-05-06 06:44 | -36.83862 | 143.10638 | 34101 ft | 435 kts | 261° |
| 2026-05-06 06:45 | -36.85169 | 143.03435 | 34101 ft | 435 kts | 262° |
| 2026-05-06 06:45 | -36.86508 | 142.96050 | 34102 ft | 434 kts | 262° |
| 2026-05-06 06:46 | -36.87713 | 142.88641 | 34098 ft | 432 kts | 264° |
| 2026-05-06 06:46 | -36.88842 | 142.81277 | 34104 ft | 432 kts | 263° |
| 2026-05-06 06:47 | -36.89990 | 142.73902 | 34103 ft | 432 kts | 263° |
| 2026-05-06 06:47 | -36.91111 | 142.66564 | 34105 ft | 431 kts | 263° |
| 2026-05-06 06:48 | -36.92224 | 142.59217 | 34092 ft | 430 kts | 263° |
| 2026-05-06 06:48 | -36.93330 | 142.51875 | 34094 ft | 430 kts | 264° |
| 2026-05-06 06:49 | -36.94428 | 142.44560 | 34092 ft | 429 kts | 264° |
| 2026-05-06 06:49 | -36.95527 | 142.37213 | 34101 ft | 429 kts | 264° |
| 2026-05-06 06:50 | -36.96616 | 142.29893 | 34111 ft | 429 kts | 264° |
| 2026-05-06 06:50 | -36.97701 | 142.22563 | 34113 ft | 428 kts | 264° |
| 2026-05-06 06:51 | -36.98781 | 142.15244 | 34119 ft | 427 kts | 264° |
| 2026-05-06 06:51 | -36.99853 | 142.07938 | 34123 ft | 426 kts | 264° |
| 2026-05-06 06:52 | -37.00918 | 142.00652 | 34126 ft | 426 kts | 264° |
| 2026-05-06 06:52 | -37.01980 | 141.93357 | 34127 ft | 425 kts | 264° |
| 2026-05-06 06:53 | -37.03034 | 141.86078 | 34130 ft | 424 kts | 264° |
| 2026-05-06 06:53 | -37.04074 | 141.78864 | 34130 ft | 423 kts | 264° |
| 2026-05-06 06:54 | -37.05114 | 141.71620 | 34132 ft | 423 kts | 264° |
| 2026-05-06 06:54 | -37.06150 | 141.64372 | 34132 ft | 422 kts | 264° |
| 2026-05-06 06:55 | -37.07179 | 141.57139 | 34135 ft | 421 kts | 264° |
| 2026-05-06 06:55 | -37.08198 | 141.49946 | 34139 ft | 421 kts | 264° |
| 2026-05-06 06:56 | -37.09218 | 141.42712 | 34144 ft | 421 kts | 264° |
| 2026-05-06 06:56 | -37.10229 | 141.35499 | 34146 ft | 420 kts | 264° |
| 2026-05-06 06:57 | -37.11240 | 141.28268 | 34151 ft | 420 kts | 264° |
| 2026-05-06 06:57 | -37.12235 | 141.21113 | 34155 ft | 420 kts | 264° |
| 2026-05-06 06:58 | -37.13231 | 141.13914 | 34157 ft | 420 kts | 264° |
| 2026-05-06 06:58 | -37.14227 | 141.06683 | 34161 ft | 420 kts | 264° |
| 2026-05-06 06:59 | -37.15220 | 140.99443 | 34160 ft | 420 kts | 264° |
| 2026-05-06 06:59 | -37.16204 | 140.92228 | 34157 ft | 421 kts | 264° |
| 2026-05-06 07:00 | -37.17187 | 140.84990 | 34165 ft | 421 kts | 264° |
| 2026-05-06 07:00 | -37.18169 | 140.77730 | 34167 ft | 422 kts | 264° |
| 2026-05-06 07:01 | -37.19147 | 140.70459 | 34171 ft | 423 kts | 264° |
| 2026-05-06 07:01 | -37.20115 | 140.63227 | 34172 ft | 424 kts | 263° |
| 2026-05-06 07:02 | -37.21091 | 140.55909 | 34180 ft | 425 kts | 263° |
| 2026-05-06 07:02 | -37.22064 | 140.48572 | 34181 ft | 427 kts | 263° |
| 2026-05-06 07:03 | -37.23033 | 140.41232 | 34193 ft | 428 kts | 263° |
| 2026-05-06 07:03 | -37.24003 | 140.33841 | 34194 ft | 428 kts | 263° |
| 2026-05-06 07:04 | -37.24805 | 140.27703 | 34201 ft | 429 kts | 263° |
| 2026-05-06 07:04 | -37.25767 | 140.20316 | 34207 ft | 429 kts | 262° |
| 2026-05-06 07:05 | -37.26882 | 140.11717 | 34212 ft | 428 kts | 262° |
| 2026-05-06 07:05 | -37.28024 | 140.05675 | 34219 ft | 429 kts | 253° |
| 2026-05-06 07:06 | -37.30026 | 139.98611 | 34220 ft | 428 kts | 253° |
| 2026-05-06 07:06 | -37.31998 | 139.91560 | 34220 ft | 427 kts | 253° |
| 2026-05-06 07:07 | -37.33966 | 139.84533 | 34220 ft | 425 kts | 252° |
| 2026-05-06 07:07 | -37.35926 | 139.77531 | 34219 ft | 423 kts | 252° |
| 2026-05-06 07:08 | -37.37873 | 139.70559 | 34222 ft | 422 kts | 252° |
| 2026-05-06 07:08 | -37.39800 | 139.63630 | 34218 ft | 421 kts | 252° |
| 2026-05-06 07:09 | -37.41724 | 139.56689 | 34222 ft | 419 kts | 252° |
| 2026-05-06 07:09 | -37.43639 | 139.49761 | 34211 ft | 418 kts | 252° |
| 2026-05-06 07:10 | -37.45542 | 139.42856 | 34209 ft | 417 kts | 252° |
| 2026-05-06 07:10 | -37.47437 | 139.35964 | 34217 ft | 416 kts | 252° |
| 2026-05-06 07:11 | -37.49328 | 139.29069 | 34209 ft | 416 kts | 252° |
| 2026-05-06 07:11 | -37.51197 | 139.22238 | 34215 ft | 416 kts | 252° |
| 2026-05-06 07:12 | -37.53079 | 139.15335 | 34218 ft | 416 kts | 252° |
| 2026-05-06 07:12 | -37.54952 | 139.08451 | 34223 ft | 416 kts | 251° |
| 2026-05-06 07:13 | -37.56827 | 139.01541 | 34231 ft | 416 kts | 251° |
| 2026-05-06 07:13 | -37.58695 | 138.94640 | 34239 ft | 416 kts | 251° |
| 2026-05-06 07:14 | -37.60549 | 138.87772 | 34242 ft | 416 kts | 251° |
| 2026-05-06 07:14 | -37.62406 | 138.80872 | 34242 ft | 415 kts | 251° |
| 2026-05-06 07:15 | -37.64260 | 138.73968 | 34246 ft | 415 kts | 251° |
| 2026-05-06 07:15 | -37.66112 | 138.67052 | 34245 ft | 415 kts | 251° |
| 2026-05-06 07:16 | -37.67954 | 138.60153 | 34251 ft | 414 kts | 251° |
| 2026-05-06 07:16 | -37.69792 | 138.53254 | 34250 ft | 414 kts | 250° |
| 2026-05-06 07:17 | -37.71609 | 138.46412 | 34251 ft | 413 kts | 250° |
| 2026-05-06 07:17 | -37.73434 | 138.39525 | 34255 ft | 412 kts | 250° |
| 2026-05-06 07:18 | -37.75249 | 138.32656 | 34256 ft | 412 kts | 250° |
| 2026-05-06 07:18 | -37.77059 | 138.25785 | 34258 ft | 411 kts | 250° |
| 2026-05-06 07:19 | -37.78851 | 138.18964 | 34259 ft | 410 kts | 250° |
| 2026-05-06 07:19 | -37.80643 | 138.12127 | 34261 ft | 409 kts | 249° |
| 2026-05-06 07:20 | -37.82429 | 138.05296 | 34258 ft | 408 kts | 249° |
| 2026-05-06 07:20 | -37.84204 | 137.98486 | 34263 ft | 408 kts | 249° |
| 2026-05-06 07:21 | -37.85980 | 137.91656 | 34267 ft | 407 kts | 249° |
| 2026-05-06 07:21 | -37.87744 | 137.84849 | 34271 ft | 407 kts | 249° |
| 2026-05-06 07:22 | -37.89491 | 137.78094 | 34270 ft | 406 kts | 249° |
| 2026-05-06 07:22 | -37.91247 | 137.71286 | 34273 ft | 406 kts | 249° |
| 2026-05-06 07:23 | -37.92994 | 137.64496 | 34272 ft | 405 kts | 249° |
| 2026-05-06 07:23 | -37.94741 | 137.57686 | 34277 ft | 405 kts | 249° |
| 2026-05-06 07:24 | -37.96473 | 137.50913 | 34277 ft | 404 kts | 249° |
| 2026-05-06 07:24 | -37.98201 | 137.44139 | 34277 ft | 404 kts | 249° |
| 2026-05-06 07:25 | -37.99926 | 137.37359 | 34282 ft | 404 kts | 249° |
| 2026-05-06 07:25 | -38.01648 | 137.30573 | 34280 ft | 403 kts | 249° |
| 2026-05-06 07:26 | -38.03350 | 137.23843 | 34279 ft | 403 kts | 249° |
| 2026-05-06 07:26 | -38.05064 | 137.17052 | 34287 ft | 403 kts | 249° |
| 2026-05-06 07:27 | -38.06772 | 137.10265 | 34302 ft | 403 kts | 249° |
| 2026-05-06 07:27 | -38.08480 | 137.03459 | 34304 ft | 404 kts | 248° |
| 2026-05-06 07:28 | -38.10173 | 136.96698 | 34301 ft | 404 kts | 248° |
| 2026-05-06 07:28 | -38.12721 | 136.86479 | 34294 ft | 405 kts | 248° |
| 2026-05-06 07:29 | -38.14406 | 136.79701 | 34301 ft | 405 kts | 248° |
| 2026-05-06 07:29 | -38.16100 | 136.72863 | 34300 ft | 405 kts | 248° |
| 2026-05-06 07:30 | -38.17787 | 136.66041 | 34301 ft | 405 kts | 248° |
| 2026-05-06 07:30 | -38.19478 | 136.59180 | 34307 ft | 406 kts | 248° |
| 2026-05-06 07:31 | -38.21162 | 136.52326 | 34303 ft | 406 kts | 248° |
| 2026-05-06 07:31 | -38.22845 | 136.45459 | 34309 ft | 406 kts | 248° |
| 2026-05-06 07:32 | -38.24522 | 136.38594 | 34313 ft | 407 kts | 248° |
| 2026-05-06 07:32 | -38.26191 | 136.31747 | 34313 ft | 407 kts | 248° |
| 2026-05-06 07:33 | -38.27869 | 136.24842 | 34308 ft | 408 kts | 248° |
| 2026-05-06 07:33 | -38.29546 | 136.17919 | 34318 ft | 409 kts | 248° |
| 2026-05-06 07:34 | -38.31222 | 136.10981 | 34320 ft | 409 kts | 248° |
| 2026-05-06 07:34 | -38.32882 | 136.04090 | 34323 ft | 410 kts | 248° |
| 2026-05-06 07:35 | -38.34552 | 135.97136 | 34324 ft | 411 kts | 248° |
| 2026-05-06 07:35 | -38.36222 | 135.90163 | 34323 ft | 412 kts | 248° |
| 2026-05-06 07:36 | -38.37889 | 135.83183 | 34328 ft | 412 kts | 248° |
| 2026-05-06 07:36 | -38.39558 | 135.76172 | 34328 ft | 413 kts | 248° |
| 2026-05-06 07:37 | -38.41214 | 135.69196 | 34331 ft | 414 kts | 248° |
| 2026-05-06 07:37 | -38.42883 | 135.62144 | 34333 ft | 415 kts | 248° |
| 2026-05-06 07:38 | -38.44546 | 135.55094 | 34335 ft | 416 kts | 248° |
| 2026-05-06 07:38 | -38.46212 | 135.48015 | 34343 ft | 417 kts | 248° |
| 2026-05-06 07:39 | -38.47866 | 135.40961 | 34346 ft | 417 kts | 248° |
| 2026-05-06 07:39 | -38.49530 | 135.33844 | 34344 ft | 418 kts | 248° |
| 2026-05-06 07:40 | -38.51196 | 135.26701 | 34346 ft | 419 kts | 248° |
| 2026-05-06 07:40 | -38.52860 | 135.19538 | 34347 ft | 420 kts | 248° |
| 2026-05-06 07:41 | -38.54510 | 135.12419 | 34349 ft | 422 kts | 248° |
| 2026-05-06 07:41 | -38.56170 | 135.05230 | 34354 ft | 423 kts | 248° |
| 2026-05-06 07:42 | -38.57834 | 134.98003 | 34356 ft | 423 kts | 248° |
| 2026-05-06 07:42 | -38.59494 | 134.90771 | 34358 ft | 424 kts | 248° |
| 2026-05-06 07:43 | -38.61145 | 134.83555 | 34354 ft | 425 kts | 248° |
| 2026-05-06 07:43 | -38.62801 | 134.76298 | 34361 ft | 426 kts | 248° |
| 2026-05-06 07:44 | -38.64462 | 134.68991 | 34356 ft | 427 kts | 249° |
| 2026-05-06 07:44 | -38.66119 | 134.61679 | 34359 ft | 428 kts | 249° |
| 2026-05-06 07:45 | -38.67777 | 134.54344 | 34363 ft | 429 kts | 249° |
| 2026-05-06 07:45 | -38.69425 | 134.47025 | 34369 ft | 430 kts | 249° |
| 2026-05-06 07:46 | -38.71079 | 134.39656 | 34374 ft | 431 kts | 249° |
| 2026-05-06 07:46 | -38.72735 | 134.32253 | 34370 ft | 432 kts | 249° |
| 2026-05-06 07:47 | -38.74388 | 134.24837 | 34370 ft | 434 kts | 249° |
| 2026-05-06 07:47 | -38.76040 | 134.17404 | 34378 ft | 435 kts | 249° |
| 2026-05-06 07:48 | -38.77696 | 134.09930 | 34384 ft | 436 kts | 249° |
| 2026-05-06 07:48 | -38.79350 | 134.02435 | 34379 ft | 437 kts | 249° |
| 2026-05-06 07:49 | -38.80993 | 133.94967 | 34381 ft | 438 kts | 249° |
| 2026-05-06 07:49 | -38.82645 | 133.87434 | 34382 ft | 439 kts | 249° |
| 2026-05-06 07:50 | -38.84294 | 133.79888 | 34387 ft | 439 kts | 249° |
| 2026-05-06 07:50 | -38.85659 | 133.73625 | 34387 ft | 440 kts | 249° |
| 2026-05-06 07:51 | -38.87308 | 133.66035 | 34379 ft | 441 kts | 249° |
| 2026-05-06 07:51 | -38.88950 | 133.58443 | 34392 ft | 442 kts | 249° |
| 2026-05-06 07:52 | -38.90592 | 133.50831 | 34389 ft | 442 kts | 249° |
| 2026-05-06 07:52 | -38.92228 | 133.43219 | 34396 ft | 443 kts | 249° |
| 2026-05-06 07:53 | -38.93867 | 133.35574 | 34397 ft | 444 kts | 249° |
| 2026-05-06 07:53 | -38.95502 | 133.27930 | 34395 ft | 444 kts | 249° |
| 2026-05-06 07:54 | -38.97127 | 133.20314 | 34401 ft | 445 kts | 249° |
| 2026-05-06 07:54 | -38.98761 | 133.12631 | 34402 ft | 446 kts | 249° |
| 2026-05-06 07:55 | -39.00397 | 133.04941 | 34412 ft | 446 kts | 249° |
| 2026-05-06 07:55 | -39.02299 | 132.97370 | 34407 ft | 444 kts | 246° |
| 2026-05-06 07:56 | -39.04270 | 132.89815 | 34411 ft | 445 kts | 246° |
| 2026-05-06 07:56 | -39.06210 | 132.82227 | 34416 ft | 446 kts | 247° |
| 2026-05-06 07:57 | -39.08125 | 132.74671 | 34416 ft | 447 kts | 247° |
| 2026-05-06 07:57 | -39.10047 | 132.67053 | 34422 ft | 448 kts | 247° |
| 2026-05-06 07:58 | -39.11963 | 132.59424 | 34418 ft | 448 kts | 247° |
| 2026-05-06 07:58 | -39.13882 | 132.51756 | 34420 ft | 449 kts | 247° |
| 2026-05-06 07:59 | -39.15794 | 132.44094 | 34423 ft | 449 kts | 247° |
| 2026-05-06 07:59 | -39.17690 | 132.36469 | 34422 ft | 450 kts | 247° |
| 2026-05-06 08:00 | -39.19593 | 132.28789 | 34415 ft | 450 kts | 247° |
| 2026-05-06 08:00 | -39.21497 | 132.21084 | 34426 ft | 451 kts | 247° |
| 2026-05-06 08:01 | -39.23395 | 132.13378 | 34434 ft | 451 kts | 247° |
| 2026-05-06 08:01 | -39.25296 | 132.05637 | 34435 ft | 452 kts | 247° |
| 2026-05-06 08:02 | -39.27186 | 131.97912 | 34440 ft | 452 kts | 247° |
| 2026-05-06 08:02 | -39.29077 | 131.90162 | 34447 ft | 452 kts | 247° |
| 2026-05-06 08:03 | -39.30950 | 131.82457 | 34441 ft | 452 kts | 247° |
| 2026-05-06 08:03 | -39.32834 | 131.74681 | 34443 ft | 453 kts | 248° |
| 2026-05-06 08:04 | -39.34713 | 131.66903 | 34438 ft | 453 kts | 247° |
| 2026-05-06 08:04 | -39.36588 | 131.59115 | 34441 ft | 453 kts | 247° |
| 2026-05-06 08:05 | -39.38442 | 131.51389 | 34439 ft | 453 kts | 247° |
| 2026-05-06 08:05 | -39.40312 | 131.43570 | 34448 ft | 454 kts | 248° |
| 2026-05-06 08:06 | -39.42170 | 131.35777 | 34450 ft | 454 kts | 247° |
| 2026-05-06 08:06 | -39.44029 | 131.27951 | 34454 ft | 455 kts | 248° |
| 2026-05-06 08:07 | -39.45881 | 131.20128 | 34456 ft | 455 kts | 247° |
| 2026-05-06 08:07 | -39.47720 | 131.12335 | 34470 ft | 455 kts | 247° |
| 2026-05-06 08:08 | -39.49561 | 131.04509 | 34469 ft | 455 kts | 247° |
| 2026-05-06 08:08 | -39.51406 | 130.96637 | 34464 ft | 456 kts | 247° |
| 2026-05-06 08:09 | -39.53244 | 130.88769 | 34464 ft | 456 kts | 247° |
| 2026-05-06 08:09 | -39.55074 | 130.80906 | 34463 ft | 456 kts | 247° |
| 2026-05-06 08:10 | -39.56904 | 130.73019 | 34466 ft | 457 kts | 247° |
| 2026-05-06 08:10 | -39.58727 | 130.65131 | 34464 ft | 457 kts | 247° |
| 2026-05-06 08:11 | -39.60540 | 130.57265 | 34467 ft | 457 kts | 247° |
| 2026-05-06 08:11 | -39.62354 | 130.49364 | 34473 ft | 458 kts | 247° |
| 2026-05-06 08:12 | -39.64170 | 130.41427 | 34472 ft | 458 kts | 247° |
| 2026-05-06 08:12 | -39.65977 | 130.33503 | 34471 ft | 458 kts | 247° |
| 2026-05-06 08:13 | -39.67784 | 130.25554 | 34473 ft | 459 kts | 247° |
| 2026-05-06 08:13 | -39.69582 | 130.17608 | 34478 ft | 460 kts | 247° |
| 2026-05-06 08:14 | -39.71386 | 130.09614 | 34482 ft | 460 kts | 247° |
| 2026-05-06 08:14 | -39.73182 | 130.01624 | 34488 ft | 461 kts | 247° |
| 2026-05-06 08:15 | -39.74962 | 129.93677 | 34482 ft | 461 kts | 247° |
| 2026-05-06 08:15 | -39.76749 | 129.85672 | 34487 ft | 462 kts | 247° |
| 2026-05-06 08:16 | -39.78534 | 129.77643 | 34493 ft | 462 kts | 247° |
| 2026-05-06 08:16 | -39.80317 | 129.69597 | 34494 ft | 462 kts | 247° |
| 2026-05-06 08:17 | -39.82095 | 129.61545 | 34495 ft | 463 kts | 247° |
| 2026-05-06 08:17 | -39.83870 | 129.53479 | 34499 ft | 463 kts | 248° |
| 2026-05-06 08:18 | -39.85623 | 129.45478 | 34505 ft | 463 kts | 248° |
| 2026-05-06 08:18 | -39.87382 | 129.37422 | 34494 ft | 463 kts | 248° |
| 2026-05-06 08:19 | -39.89142 | 129.29336 | 34516 ft | 463 kts | 248° |
| 2026-05-06 08:19 | -39.90891 | 129.21266 | 34513 ft | 463 kts | 248° |
| 2026-05-06 08:20 | -39.92637 | 129.13183 | 34510 ft | 463 kts | 248° |
| 2026-05-06 08:20 | -39.94367 | 129.05140 | 34514 ft | 463 kts | 248° |
| 2026-05-06 08:21 | -39.96099 | 128.97060 | 34503 ft | 463 kts | 248° |
| 2026-05-06 08:21 | -39.97828 | 128.88967 | 34512 ft | 463 kts | 248° |
| 2026-05-06 08:22 | -39.99553 | 128.80859 | 34512 ft | 463 kts | 248° |
| 2026-05-06 08:22 | -40.01272 | 128.72743 | 34508 ft | 463 kts | 248° |
| 2026-05-06 08:23 | -40.02971 | 128.64699 | 34508 ft | 463 kts | 248° |
| 2026-05-06 08:23 | -40.04678 | 128.56588 | 34510 ft | 463 kts | 248° |
| 2026-05-06 08:24 | -40.06379 | 128.48470 | 34513 ft | 463 kts | 249° |
| 2026-05-06 08:24 | -40.08073 | 128.40354 | 34514 ft | 463 kts | 249° |
| 2026-05-06 08:25 | -40.09752 | 128.32277 | 34515 ft | 463 kts | 249° |
| 2026-05-06 08:25 | -40.11439 | 128.24139 | 34516 ft | 463 kts | 249° |
| 2026-05-06 08:26 | -40.13117 | 128.16004 | 34519 ft | 463 kts | 249° |
| 2026-05-06 08:26 | -40.14791 | 128.07859 | 34521 ft | 463 kts | 249° |
| 2026-05-06 08:27 | -40.16450 | 127.99755 | 34521 ft | 463 kts | 249° |
| 2026-05-06 08:27 | -40.18114 | 127.91601 | 34527 ft | 464 kts | 249° |
| 2026-05-06 08:28 | -40.19769 | 127.83452 | 34523 ft | 464 kts | 249° |
| 2026-05-06 08:28 | -40.21423 | 127.75278 | 34521 ft | 464 kts | 249° |
| 2026-05-06 08:29 | -40.23059 | 127.67160 | 34522 ft | 464 kts | 249° |
| 2026-05-06 08:29 | -40.24702 | 127.58977 | 34532 ft | 465 kts | 250° |
| 2026-05-06 08:30 | -40.26340 | 127.50783 | 34531 ft | 465 kts | 250° |
| 2026-05-06 08:30 | -40.27975 | 127.42574 | 34535 ft | 465 kts | 250° |
| 2026-05-06 08:31 | -40.29600 | 127.34381 | 34530 ft | 465 kts | 250° |
| 2026-05-06 08:31 | -40.31225 | 127.26153 | 34537 ft | 466 kts | 250° |
| 2026-05-06 08:32 | -40.32833 | 127.17979 | 34535 ft | 466 kts | 250° |
| 2026-05-06 08:32 | -40.34445 | 127.09753 | 34540 ft | 466 kts | 250° |
| 2026-05-06 08:33 | -40.36052 | 127.01514 | 34540 ft | 466 kts | 250° |
| 2026-05-06 08:33 | -40.37656 | 126.93261 | 34536 ft | 466 kts | 250° |
| 2026-05-06 08:34 | -40.40045 | 126.80913 | 34542 ft | 466 kts | 250° |
| 2026-05-06 08:35 | -40.41637 | 126.72658 | 34545 ft | 466 kts | 250° |
| 2026-05-06 08:35 | -40.43207 | 126.64495 | 34543 ft | 466 kts | 250° |
| 2026-05-06 08:36 | -40.44794 | 126.56205 | 34550 ft | 467 kts | 251° |
| 2026-05-06 08:36 | -40.46566 | 126.48018 | 34544 ft | 464 kts | 247° |
| 2026-05-06 08:37 | -40.48569 | 126.39972 | 34544 ft | 464 kts | 247° |
| 2026-05-06 08:37 | -40.50210 | 126.33256 | 34547 ft | 464 kts | 248° |
| 2026-05-06 08:38 | -40.52158 | 126.25144 | 34552 ft | 465 kts | 248° |
| 2026-05-06 08:38 | -40.54072 | 126.17125 | 34555 ft | 465 kts | 248° |
| 2026-05-06 08:39 | -40.56002 | 126.09003 | 34556 ft | 465 kts | 248° |
| 2026-05-06 08:39 | -40.57923 | 126.00877 | 34560 ft | 466 kts | 248° |
| 2026-05-06 08:40 | -40.59830 | 125.92776 | 34560 ft | 466 kts | 248° |
| 2026-05-06 08:40 | -40.61740 | 125.84634 | 34558 ft | 466 kts | 248° |
| 2026-05-06 08:41 | -40.63649 | 125.76470 | 34555 ft | 466 kts | 248° |
| 2026-05-06 08:41 | -40.65565 | 125.68243 | 34567 ft | 466 kts | 248° |
| 2026-05-06 08:42 | -40.67452 | 125.60112 | 34572 ft | 467 kts | 249° |
| 2026-05-06 08:42 | -40.69346 | 125.51923 | 34567 ft | 467 kts | 249° |
| 2026-05-06 08:43 | -40.71235 | 125.43727 | 34567 ft | 467 kts | 249° |
| 2026-05-06 08:43 | -40.73118 | 125.35522 | 34561 ft | 468 kts | 249° |
| 2026-05-06 08:44 | -40.74995 | 125.27318 | 34570 ft | 468 kts | 249° |
| 2026-05-06 08:44 | -40.76869 | 125.19094 | 34572 ft | 468 kts | 249° |
| 2026-05-06 08:45 | -40.78737 | 125.10869 | 34569 ft | 468 kts | 249° |
| 2026-05-06 08:45 | -40.80600 | 125.02634 | 34568 ft | 468 kts | 249° |
| 2026-05-06 08:46 | -40.82447 | 124.94441 | 34571 ft | 468 kts | 249° |
| 2026-05-06 08:46 | -40.84302 | 124.86180 | 34567 ft | 469 kts | 249° |
| 2026-05-06 08:47 | -40.86153 | 124.77908 | 34565 ft | 469 kts | 250° |
| 2026-05-06 08:47 | -40.87999 | 124.69625 | 34578 ft | 469 kts | 250° |
| 2026-05-06 08:48 | -40.89838 | 124.61341 | 34576 ft | 470 kts | 250° |
| 2026-05-06 08:48 | -40.91670 | 124.53057 | 34572 ft | 470 kts | 250° |
| 2026-05-06 08:49 | -40.93504 | 124.44737 | 34576 ft | 470 kts | 250° |
| 2026-05-06 08:49 | -40.95326 | 124.36439 | 34576 ft | 470 kts | 250° |
| 2026-05-06 08:50 | -40.97135 | 124.28166 | 34576 ft | 471 kts | 250° |
| 2026-05-06 08:50 | -40.98950 | 124.19830 | 34581 ft | 471 kts | 250° |
| 2026-05-06 08:51 | -41.00757 | 124.11504 | 34578 ft | 471 kts | 250° |
| 2026-05-06 08:51 | -41.02552 | 124.03203 | 34580 ft | 471 kts | 250° |
| 2026-05-06 08:52 | -41.04347 | 123.94868 | 34577 ft | 471 kts | 251° |
| 2026-05-06 08:52 | -41.06140 | 123.86511 | 34579 ft | 471 kts | 251° |
| 2026-05-06 08:53 | -41.07924 | 123.78159 | 34578 ft | 471 kts | 251° |
| 2026-05-06 08:53 | -41.09706 | 123.69786 | 34585 ft | 471 kts | 251° |
| 2026-05-06 08:54 | -41.11480 | 123.61418 | 34579 ft | 472 kts | 251° |
| 2026-05-06 08:54 | -41.13242 | 123.53072 | 34583 ft | 472 kts | 251° |
| 2026-05-06 08:55 | -41.15009 | 123.44671 | 34583 ft | 472 kts | 251° |
| 2026-05-06 08:55 | -41.16774 | 123.36244 | 34589 ft | 472 kts | 251° |
| 2026-05-06 08:56 | -41.18518 | 123.27886 | 34581 ft | 473 kts | 252° |
| 2026-05-06 08:56 | -41.20266 | 123.19473 | 34590 ft | 473 kts | 252° |
| 2026-05-06 08:57 | -41.22008 | 123.11057 | 34588 ft | 473 kts | 252° |
| 2026-05-06 08:57 | -41.23746 | 123.02624 | 34584 ft | 473 kts | 252° |
| 2026-05-06 08:58 | -41.25477 | 122.94193 | 34584 ft | 473 kts | 252° |
| 2026-05-06 08:58 | -41.27190 | 122.85812 | 34585 ft | 473 kts | 252° |
| 2026-05-06 08:59 | -41.28917 | 122.77330 | 34587 ft | 474 kts | 252° |
| 2026-05-06 08:59 | -41.30642 | 122.68825 | 34580 ft | 474 kts | 252° |
| 2026-05-06 09:00 | -41.32343 | 122.60401 | 34599 ft | 474 kts | 252° |
| 2026-05-06 09:00 | -41.34047 | 122.51930 | 34588 ft | 474 kts | 253° |
| 2026-05-06 09:01 | -41.35746 | 122.43444 | 34587 ft | 474 kts | 253° |
| 2026-05-06 09:01 | -41.37440 | 122.34947 | 34596 ft | 474 kts | 253° |
| 2026-05-06 09:02 | -41.39126 | 122.26458 | 34590 ft | 474 kts | 253° |
| 2026-05-06 09:02 | -41.40808 | 122.17949 | 34593 ft | 475 kts | 253° |
| 2026-05-06 09:03 | -41.42475 | 122.09486 | 34585 ft | 475 kts | 253° |
| 2026-05-06 09:03 | -41.44152 | 122.00933 | 34588 ft | 476 kts | 253° |
| 2026-05-06 09:04 | -41.45816 | 121.92408 | 34591 ft | 476 kts | 253° |
| 2026-05-06 09:04 | -41.47480 | 121.83848 | 34586 ft | 476 kts | 253° |
| 2026-05-06 09:05 | -41.49133 | 121.75308 | 34591 ft | 476 kts | 253° |
| 2026-05-06 09:05 | -41.50784 | 121.66741 | 34586 ft | 476 kts | 253° |
| 2026-05-06 09:06 | -41.52428 | 121.58170 | 34587 ft | 476 kts | 254° |
| 2026-05-06 09:06 | -41.54063 | 121.49612 | 34588 ft | 476 kts | 254° |
| 2026-05-06 09:07 | -41.55696 | 121.41027 | 34590 ft | 476 kts | 254° |
| 2026-05-06 09:07 | -41.57307 | 121.32515 | 34590 ft | 476 kts | 254° |
| 2026-05-06 09:08 | -41.58925 | 121.23935 | 34591 ft | 476 kts | 254° |
| 2026-05-06 09:08 | -41.60534 | 121.15358 | 34584 ft | 476 kts | 254° |
| 2026-05-06 09:09 | -41.62139 | 121.06771 | 34589 ft | 476 kts | 254° |
| 2026-05-06 09:09 | -41.63738 | 120.98173 | 34587 ft | 476 kts | 254° |
| 2026-05-06 09:10 | -41.65318 | 120.89638 | 34589 ft | 476 kts | 255° |
| 2026-05-06 09:10 | -41.66903 | 120.81044 | 34594 ft | 476 kts | 255° |
| 2026-05-06 09:11 | -41.68483 | 120.72431 | 34588 ft | 476 kts | 255° |
| 2026-05-06 09:11 | -41.70054 | 120.63833 | 34586 ft | 476 kts | 255° |
| 2026-05-06 09:12 | -41.71620 | 120.55219 | 34590 ft | 476 kts | 255° |
| 2026-05-06 09:12 | -41.73170 | 120.46654 | 34588 ft | 475 kts | 255° |
| 2026-05-06 09:13 | -41.74721 | 120.38048 | 34589 ft | 475 kts | 255° |
| 2026-05-06 09:13 | -41.76263 | 120.29447 | 34585 ft | 475 kts | 255° |
| 2026-05-06 09:14 | -41.77800 | 120.20837 | 34587 ft | 475 kts | 255° |
| 2026-05-06 09:14 | -41.79331 | 120.12218 | 34588 ft | 475 kts | 255° |
| 2026-05-06 09:15 | -41.80856 | 120.03597 | 34586 ft | 475 kts | 256° |
| 2026-05-06 09:15 | -41.82374 | 119.94973 | 34587 ft | 475 kts | 256° |
| 2026-05-06 09:16 | -41.83879 | 119.86381 | 34585 ft | 475 kts | 256° |
| 2026-05-06 09:16 | -41.85382 | 119.77758 | 34594 ft | 474 kts | 256° |
| 2026-05-06 09:17 | -41.86882 | 119.69112 | 34585 ft | 474 kts | 256° |
| 2026-05-06 09:17 | -41.88372 | 119.60487 | 34588 ft | 474 kts | 256° |
| 2026-05-06 09:18 | -41.89852 | 119.51872 | 34585 ft | 474 kts | 256° |
| 2026-05-06 09:18 | -41.91320 | 119.43293 | 34594 ft | 474 kts | 256° |
| 2026-05-06 09:19 | -41.92800 | 119.34599 | 34588 ft | 474 kts | 256° |
| 2026-05-06 09:19 | -41.94256 | 119.26028 | 34581 ft | 474 kts | 256° |
| 2026-05-06 09:20 | -41.95719 | 119.17386 | 34585 ft | 474 kts | 256° |
| 2026-05-06 09:20 | -41.96931 | 119.10197 | 34591 ft | 474 kts | 256° |
| 2026-05-06 09:21 | -41.98382 | 119.01551 | 34580 ft | 474 kts | 256° |
| 2026-05-06 09:21 | -42.00070 | 118.92978 | 34574 ft | 473 kts | 253° |
| 2026-05-06 09:22 | -42.01902 | 118.84491 | 34578 ft | 474 kts | 253° |
| 2026-05-06 09:22 | -42.03686 | 118.75993 | 34584 ft | 474 kts | 254° |
| 2026-05-06 09:23 | -42.05455 | 118.67440 | 34586 ft | 474 kts | 254° |
| 2026-05-06 09:23 | -42.07213 | 118.58889 | 34586 ft | 474 kts | 254° |
| 2026-05-06 09:24 | -42.08970 | 118.50310 | 34587 ft | 474 kts | 254° |
| 2026-05-06 09:24 | -42.10719 | 118.41738 | 34585 ft | 474 kts | 254° |
| 2026-05-06 09:25 | -42.12448 | 118.33225 | 34588 ft | 474 kts | 254° |
| 2026-05-06 09:25 | -42.14186 | 118.24632 | 34581 ft | 474 kts | 254° |
| 2026-05-06 09:26 | -42.15917 | 118.16039 | 34581 ft | 474 kts | 254° |
| 2026-05-06 09:26 | -42.17641 | 118.07446 | 34580 ft | 474 kts | 254° |
| 2026-05-06 09:27 | -42.19346 | 117.98907 | 34578 ft | 474 kts | 255° |
| 2026-05-06 09:27 | -42.21055 | 117.90313 | 34580 ft | 475 kts | 255° |
| 2026-05-06 09:28 | -42.22765 | 117.81679 | 34582 ft | 475 kts | 255° |
| 2026-05-06 09:28 | -42.24463 | 117.73063 | 34582 ft | 475 kts | 255° |
| 2026-05-06 09:29 | -42.26154 | 117.64451 | 34580 ft | 475 kts | 255° |
| 2026-05-06 09:29 | -42.27839 | 117.55828 | 34577 ft | 475 kts | 255° |
| 2026-05-06 09:30 | -42.29509 | 117.47249 | 34582 ft | 475 kts | 255° |
| 2026-05-06 09:30 | -42.31186 | 117.38588 | 34587 ft | 475 kts | 255° |
| 2026-05-06 09:31 | -42.32853 | 117.29945 | 34581 ft | 475 kts | 255° |
| 2026-05-06 09:31 | -42.34506 | 117.21340 | 34582 ft | 475 kts | 255° |
| 2026-05-06 09:32 | -42.36159 | 117.12700 | 34579 ft | 475 kts | 255° |
| 2026-05-06 09:32 | -42.37781 | 117.04024 | 34576 ft | 475 kts | 256° |
| 2026-05-06 09:33 | -42.39338 | 116.95344 | 34578 ft | 475 kts | 256° |
| 2026-05-06 09:33 | -42.40910 | 116.86660 | 34572 ft | 475 kts | 256° |
| 2026-05-06 09:34 | -42.42485 | 116.77966 | 34578 ft | 475 kts | 256° |
| 2026-05-06 09:34 | -42.44054 | 116.69264 | 34575 ft | 475 kts | 256° |
| 2026-05-06 09:35 | -42.45600 | 116.60624 | 34575 ft | 475 kts | 256° |
| 2026-05-06 09:35 | -42.47143 | 116.51951 | 34575 ft | 475 kts | 256° |
| 2026-05-06 09:36 | -42.48691 | 116.43216 | 34894 ft | 477 kts | 256° |
| 2026-05-06 09:36 | -42.49461 | 116.38850 | 35381 ft | 474 kts | 255° |
| 2026-05-06 09:36 | -42.50226 | 116.34506 | 35808 ft | 473 kts | 255° |
| 2026-05-06 09:36 | -42.50981 | 116.30205 | 36213 ft | 472 kts | 255° |
| 2026-05-06 09:37 | -42.51875 | 116.25104 | 36526 ft | 475 kts | 255° |
| 2026-05-06 09:37 | -42.53240 | 116.17283 | 36572 ft | 467 kts | 255° |
| 2026-05-06 09:38 | -42.54735 | 116.08685 | 36574 ft | 469 kts | 255° |
| 2026-05-06 09:38 | -42.56225 | 116.00069 | 36572 ft | 469 kts | 255° |
| 2026-05-06 09:39 | -42.57706 | 115.91462 | 36571 ft | 469 kts | 256° |
| 2026-05-06 09:39 | -42.59182 | 115.82848 | 36571 ft | 468 kts | 255° |
| 2026-05-06 09:40 | -42.60648 | 115.74246 | 36566 ft | 468 kts | 256° |
| 2026-05-06 09:40 | -42.62827 | 115.61386 | 36565 ft | 467 kts | 256° |
| 2026-05-06 09:41 | -42.64280 | 115.52760 | 36561 ft | 467 kts | 256° |
| 2026-05-06 09:41 | -42.65717 | 115.44180 | 36566 ft | 467 kts | 256° |
| 2026-05-06 09:42 | -42.67152 | 115.35574 | 36564 ft | 467 kts | 256° |
| 2026-05-06 09:42 | -42.68580 | 115.26967 | 36561 ft | 467 kts | 256° |
| 2026-05-06 09:43 | -42.69993 | 115.18412 | 36562 ft | 466 kts | 256° |
| 2026-05-06 09:43 | -42.71411 | 115.09780 | 36562 ft | 466 kts | 256° |
| 2026-05-06 09:44 | -42.72814 | 115.01193 | 36564 ft | 466 kts | 256° |
| 2026-05-06 09:44 | -42.74218 | 114.92564 | 36556 ft | 466 kts | 256° |
| 2026-05-06 09:45 | -42.75609 | 114.83966 | 36559 ft | 466 kts | 256° |
| 2026-05-06 09:45 | -42.76992 | 114.75374 | 36563 ft | 465 kts | 256° |
| 2026-05-06 09:46 | -42.78370 | 114.66772 | 36556 ft | 465 kts | 256° |
| 2026-05-06 09:46 | -42.79739 | 114.58184 | 36553 ft | 465 kts | 256° |
| 2026-05-06 09:47 | -42.81103 | 114.49576 | 36557 ft | 464 kts | 256° |
| 2026-05-06 09:47 | -42.82460 | 114.40971 | 36559 ft | 464 kts | 256° |
| 2026-05-06 09:48 | -42.83810 | 114.32368 | 36554 ft | 464 kts | 256° |
| 2026-05-06 09:48 | -42.85141 | 114.23838 | 36551 ft | 463 kts | 256° |
| 2026-05-06 09:49 | -42.86476 | 114.15242 | 36549 ft | 463 kts | 256° |
| 2026-05-06 09:49 | -42.87804 | 114.06644 | 36546 ft | 463 kts | 256° |
| 2026-05-06 09:50 | -42.89124 | 113.98053 | 36544 ft | 463 kts | 257° |
| 2026-05-06 09:50 | -42.90438 | 113.89458 | 36551 ft | 462 kts | 257° |
| 2026-05-06 09:51 | -42.91740 | 113.80893 | 36542 ft | 462 kts | 257° |
| 2026-05-06 09:51 | -42.93034 | 113.72334 | 36542 ft | 462 kts | 257° |
| 2026-05-06 09:52 | -42.94326 | 113.63742 | 36542 ft | 461 kts | 257° |
| 2026-05-06 09:52 | -42.95611 | 113.55156 | 36539 ft | 461 kts | 257° |
| 2026-05-06 09:53 | -42.96886 | 113.46587 | 36535 ft | 461 kts | 257° |
| 2026-05-06 09:53 | -42.98157 | 113.37996 | 36538 ft | 461 kts | 257° |
| 2026-05-06 09:54 | -42.99418 | 113.29429 | 36534 ft | 460 kts | 257° |
| 2026-05-06 09:54 | -43.00672 | 113.20858 | 36534 ft | 460 kts | 257° |
| 2026-05-06 09:55 | -43.01918 | 113.12301 | 36531 ft | 459 kts | 257° |
| 2026-05-06 09:55 | -43.03151 | 113.03779 | 36533 ft | 459 kts | 257° |
| 2026-05-06 09:56 | -43.04384 | 112.95212 | 36531 ft | 459 kts | 257° |
| 2026-05-06 09:56 | -43.05607 | 112.86669 | 36532 ft | 458 kts | 257° |
| 2026-05-06 09:57 | -43.06827 | 112.78101 | 36531 ft | 458 kts | 257° |
| 2026-05-06 09:57 | -43.08037 | 112.69548 | 36532 ft | 458 kts | 257° |
| 2026-05-06 09:58 | -43.09243 | 112.60982 | 36532 ft | 458 kts | 257° |
| 2026-05-06 09:58 | -43.10439 | 112.52438 | 36530 ft | 457 kts | 257° |
| 2026-05-06 09:59 | -43.11627 | 112.43896 | 36530 ft | 457 kts | 257° |
| 2026-05-06 09:59 | -43.12811 | 112.35343 | 36530 ft | 457 kts | 257° |
| 2026-05-06 10:00 | -43.13978 | 112.26852 | 36521 ft | 456 kts | 257° |
| 2026-05-06 10:00 | -43.15150 | 112.18280 | 36524 ft | 456 kts | 258° |
| 2026-05-06 10:01 | -43.16311 | 112.09745 | 36535 ft | 456 kts | 258° |
| 2026-05-06 10:01 | -43.17466 | 112.01203 | 36521 ft | 455 kts | 258° |
| 2026-05-06 10:02 | -43.18613 | 111.92668 | 36526 ft | 456 kts | 258° |
| 2026-05-06 10:02 | -43.19747 | 111.84177 | 36518 ft | 455 kts | 258° |
| 2026-05-06 10:03 | -43.20880 | 111.75641 | 36526 ft | 455 kts | 258° |
| 2026-05-06 10:03 | -43.22007 | 111.67104 | 36516 ft | 454 kts | 258° |
| 2026-05-06 10:04 | -43.23124 | 111.58593 | 36522 ft | 454 kts | 258° |
| 2026-05-06 10:04 | -43.24238 | 111.50044 | 36517 ft | 454 kts | 258° |
| 2026-05-06 10:05 | -43.25342 | 111.41532 | 36519 ft | 454 kts | 258° |
| 2026-05-06 10:05 | -43.26258 | 111.34428 | 36520 ft | 454 kts | 258° |
| 2026-05-06 10:06 | -43.27353 | 111.25882 | 36523 ft | 454 kts | 258° |
| 2026-05-06 10:06 | -43.28619 | 111.15945 | 36517 ft | 454 kts | 259° |
| 2026-05-06 10:07 | -43.29705 | 111.07393 | 36520 ft | 454 kts | 259° |
| 2026-05-06 10:07 | -43.30604 | 111.00285 | 36519 ft | 454 kts | 259° |
| 2026-05-06 10:08 | -43.31671 | 110.91732 | 36521 ft | 454 kts | 259° |
| 2026-05-06 10:08 | -43.32591 | 110.83152 | 36513 ft | 454 kts | 259° |
| 2026-05-06 10:09 | -43.33602 | 110.74608 | 36512 ft | 454 kts | 259° |
| 2026-05-06 10:09 | -43.34601 | 110.66025 | 36512 ft | 454 kts | 260° |
| 2026-05-06 10:10 | -43.35580 | 110.57451 | 36516 ft | 454 kts | 260° |
| 2026-05-06 10:10 | -43.36542 | 110.48920 | 36510 ft | 454 kts | 260° |
| 2026-05-06 10:11 | -43.37499 | 110.40351 | 36513 ft | 454 kts | 260° |
| 2026-05-06 10:11 | -43.38450 | 110.31766 | 36513 ft | 454 kts | 260° |
| 2026-05-06 10:12 | -43.39393 | 110.23193 | 36515 ft | 454 kts | 260° |
| 2026-05-06 10:12 | -43.40325 | 110.14664 | 36506 ft | 453 kts | 260° |
| 2026-05-06 10:13 | -43.41259 | 110.06059 | 36504 ft | 453 kts | 260° |
| 2026-05-06 10:13 | -43.42183 | 109.97477 | 36502 ft | 453 kts | 261° |
| 2026-05-06 10:14 | -43.43102 | 109.88889 | 36505 ft | 453 kts | 261° |
| 2026-05-06 10:14 | -43.44014 | 109.80295 | 36504 ft | 453 kts | 261° |
| 2026-05-06 10:15 | -43.44919 | 109.71703 | 36502 ft | 453 kts | 261° |
| 2026-05-06 10:15 | -43.45815 | 109.63131 | 36498 ft | 453 kts | 261° |
| 2026-05-06 10:16 | -43.46702 | 109.54594 | 36500 ft | 453 kts | 261° |
| 2026-05-06 10:16 | -43.47586 | 109.46013 | 36496 ft | 453 kts | 261° |
| 2026-05-06 10:17 | -43.48465 | 109.37418 | 36498 ft | 452 kts | 261° |
| 2026-05-06 10:17 | -43.49337 | 109.28824 | 36494 ft | 452 kts | 261° |
| 2026-05-06 10:18 | -43.50196 | 109.20293 | 36496 ft | 452 kts | 261° |
| 2026-05-06 10:18 | -43.51053 | 109.11714 | 36490 ft | 452 kts | 261° |
| 2026-05-06 10:19 | -43.51904 | 109.03130 | 36493 ft | 452 kts | 261° |
| 2026-05-06 10:19 | -43.52748 | 108.94551 | 36491 ft | 452 kts | 261° |
| 2026-05-06 10:20 | -43.53585 | 108.85972 | 36495 ft | 452 kts | 261° |
| 2026-05-06 10:20 | -43.54417 | 108.77383 | 36487 ft | 452 kts | 262° |
| 2026-05-06 10:21 | -43.55243 | 108.68784 | 36490 ft | 452 kts | 262° |
| 2026-05-06 10:21 | -43.56050 | 108.60320 | 36485 ft | 452 kts | 262° |
| 2026-05-06 10:22 | -43.56867 | 108.51667 | 36489 ft | 452 kts | 262° |
| 2026-05-06 10:22 | -43.57665 | 108.43161 | 36483 ft | 452 kts | 262° |
| 2026-05-06 10:23 | -43.58464 | 108.34562 | 36486 ft | 452 kts | 262° |
| 2026-05-06 10:23 | -43.59257 | 108.25959 | 36478 ft | 452 kts | 262° |
| 2026-05-06 10:24 | -43.60043 | 108.17363 | 36481 ft | 451 kts | 262° |
| 2026-05-06 10:24 | -43.60823 | 108.08758 | 36478 ft | 451 kts | 262° |
| 2026-05-06 10:25 | -43.61592 | 108.00203 | 36478 ft | 451 kts | 262° |
| 2026-05-06 10:25 | -43.62359 | 107.91596 | 36474 ft | 451 kts | 262° |
| 2026-05-06 10:26 | -43.63120 | 107.82974 | 36477 ft | 451 kts | 262° |
| 2026-05-06 10:26 | -43.63873 | 107.74375 | 36473 ft | 451 kts | 262° |
| 2026-05-06 10:27 | -43.64621 | 107.65759 | 36470 ft | 451 kts | 262° |
| 2026-05-06 10:27 | -43.65362 | 107.57146 | 36467 ft | 451 kts | 262° |
| 2026-05-06 10:28 | -43.66090 | 107.48604 | 36466 ft | 451 kts | 262° |
| 2026-05-06 10:28 | -43.66819 | 107.39968 | 36464 ft | 451 kts | 262° |
| 2026-05-06 10:29 | -43.67541 | 107.31341 | 36465 ft | 451 kts | 262° |
| 2026-05-06 10:29 | -43.68259 | 107.22697 | 36427 ft | 453 kts | 263° |
| 2026-05-06 10:30 | -43.68977 | 107.13950 | 36465 ft | 469 kts | 263° |
| 2026-05-06 10:30 | -43.69703 | 107.05023 | 36454 ft | 466 kts | 263° |
| 2026-05-06 10:31 | -43.70422 | 106.96092 | 36460 ft | 467 kts | 263° |
| 2026-05-06 10:31 | -43.71135 | 106.87159 | 36459 ft | 467 kts | 263° |
| 2026-05-06 10:32 | -43.71841 | 106.78219 | 36456 ft | 468 kts | 263° |
| 2026-05-06 10:32 | -43.72540 | 106.69273 | 36451 ft | 468 kts | 263° |
| 2026-05-06 10:33 | -43.73234 | 106.60300 | 36454 ft | 469 kts | 263° |
| 2026-05-06 10:33 | -43.73916 | 106.51400 | 36449 ft | 469 kts | 263° |
| 2026-05-06 10:34 | -43.74596 | 106.42424 | 36447 ft | 469 kts | 263° |
| 2026-05-06 10:34 | -43.75268 | 106.33459 | 36443 ft | 469 kts | 263° |
| 2026-05-06 10:35 | -43.75936 | 106.24454 | 36446 ft | 469 kts | 263° |
| 2026-05-06 10:35 | -43.76596 | 106.15457 | 36445 ft | 470 kts | 263° |
| 2026-05-06 10:36 | -43.77249 | 106.06460 | 36445 ft | 470 kts | 263° |
| 2026-05-06 10:36 | -43.77891 | 105.97522 | 36444 ft | 470 kts | 263° |
| 2026-05-06 10:37 | -43.78530 | 105.88519 | 36444 ft | 469 kts | 263° |
| 2026-05-06 10:37 | -43.79160 | 105.79538 | 36441 ft | 469 kts | 263° |
| 2026-05-06 10:38 | -43.79784 | 105.70544 | 36437 ft | 469 kts | 263° |
| 2026-05-06 10:38 | -43.80400 | 105.61562 | 36436 ft | 469 kts | 263° |
| 2026-05-06 10:39 | -43.81010 | 105.52558 | 36432 ft | 468 kts | 263° |
| 2026-05-06 10:39 | -43.81612 | 105.43577 | 36427 ft | 468 kts | 263° |
| 2026-05-06 10:40 | -43.82202 | 105.34655 | 36425 ft | 468 kts | 263° |
| 2026-05-06 10:40 | -43.82789 | 105.25686 | 36425 ft | 468 kts | 264° |
| 2026-05-06 10:41 | -43.83370 | 105.16696 | 36424 ft | 467 kts | 264° |
| 2026-05-06 10:41 | -43.83941 | 105.07741 | 36419 ft | 467 kts | 264° |
| 2026-05-06 10:42 | -43.84503 | 104.98820 | 36420 ft | 466 kts | 264° |
| 2026-05-06 10:42 | -43.85061 | 104.89872 | 36415 ft | 466 kts | 264° |
| 2026-05-06 10:43 | -43.85615 | 104.80911 | 36418 ft | 466 kts | 264° |
| 2026-05-06 10:44 | -43.86436 | 104.67496 | 36406 ft | 465 kts | 264° |
| 2026-05-06 10:44 | -43.86885 | 104.58546 | 36407 ft | 465 kts | 265° |
| 2026-05-06 10:45 | -43.87400 | 104.49621 | 36404 ft | 465 kts | 264° |
| 2026-05-06 10:45 | -43.87934 | 104.40702 | 36401 ft | 464 kts | 264° |
| 2026-05-06 10:46 | -43.88441 | 104.31824 | 36401 ft | 464 kts | 264° |
| 2026-05-06 10:46 | -43.88939 | 104.22854 | 36395 ft | 464 kts | 265° |
| 2026-05-06 10:47 | -43.89423 | 104.13991 | 36395 ft | 464 kts | 265° |
| 2026-05-06 10:47 | -43.89898 | 104.05096 | 36393 ft | 463 kts | 265° |
| 2026-05-06 10:48 | -43.90368 | 103.96138 | 36389 ft | 463 kts | 265° |
| 2026-05-06 10:48 | -43.90829 | 103.87210 | 36386 ft | 463 kts | 265° |
| 2026-05-06 10:49 | -43.91282 | 103.78311 | 36384 ft | 463 kts | 265° |
| 2026-05-06 10:49 | -43.91726 | 103.69456 | 36378 ft | 462 kts | 265° |
| 2026-05-06 10:50 | -43.92165 | 103.60551 | 36377 ft | 462 kts | 265° |
| 2026-05-06 10:50 | -43.92597 | 103.51665 | 36373 ft | 462 kts | 265° |
| 2026-05-06 10:51 | -43.92951 | 103.44258 | 36371 ft | 461 kts | 265° |
| 2026-05-06 10:51 | -43.93369 | 103.35379 | 36366 ft | 461 kts | 265° |
| 2026-05-06 10:52 | -43.93781 | 103.26493 | 36366 ft | 461 kts | 265° |
| 2026-05-06 10:52 | -43.94183 | 103.17671 | 36365 ft | 461 kts | 266° |
| 2026-05-06 10:53 | -43.94580 | 103.08799 | 36358 ft | 460 kts | 266° |
| 2026-05-06 10:53 | -43.94970 | 102.99932 | 36357 ft | 460 kts | 266° |
| 2026-05-06 10:54 | -43.95353 | 102.91080 | 36357 ft | 460 kts | 266° |
| 2026-05-06 10:54 | -43.95728 | 102.82228 | 36351 ft | 459 kts | 266° |
| 2026-05-06 10:55 | -43.96095 | 102.73421 | 36345 ft | 459 kts | 266° |
| 2026-05-06 10:55 | -43.96458 | 102.64564 | 36345 ft | 459 kts | 266° |
| 2026-05-06 10:56 | -43.96812 | 102.55720 | 36347 ft | 459 kts | 266° |
| 2026-05-06 10:56 | -43.97161 | 102.46860 | 36343 ft | 459 kts | 266° |
| 2026-05-06 10:57 | -43.97503 | 102.37987 | 36343 ft | 459 kts | 266° |
| 2026-05-06 10:57 | -43.97837 | 102.29153 | 36338 ft | 459 kts | 267° |
| 2026-05-06 10:58 | -43.98164 | 102.20294 | 36338 ft | 459 kts | 267° |
| 2026-05-06 10:58 | -43.98485 | 102.11453 | 36334 ft | 458 kts | 267° |
| 2026-05-06 10:59 | -43.98799 | 102.02597 | 36333 ft | 458 kts | 267° |
| 2026-05-06 10:59 | -43.99103 | 101.93826 | 36330 ft | 458 kts | 267° |
| 2026-05-06 11:00 | -43.99402 | 101.85003 | 36325 ft | 458 kts | 267° |
| 2026-05-06 11:00 | -43.99695 | 101.76165 | 36323 ft | 457 kts | 267° |
| 2026-05-06 11:01 | -43.99981 | 101.67345 | 36319 ft | 457 kts | 267° |
| 2026-05-06 11:01 | -44.00259 | 101.58522 | 36316 ft | 457 kts | 268° |
| 2026-05-06 11:02 | -44.00530 | 101.49730 | 36317 ft | 457 kts | 268° |
| 2026-05-06 11:02 | -44.00795 | 101.40907 | 36314 ft | 456 kts | 268° |
| 2026-05-06 11:03 | -44.01053 | 101.32090 | 36313 ft | 456 kts | 268° |
| 2026-05-06 11:03 | -44.01304 | 101.23284 | 36300 ft | 456 kts | 268° |
| 2026-05-06 11:04 | -44.01548 | 101.14483 | 36295 ft | 456 kts | 268° |
| 2026-05-06 11:04 | -44.01786 | 101.05684 | 36297 ft | 456 kts | 268° |
| 2026-05-06 11:05 | -44.02015 | 100.96922 | 36292 ft | 456 kts | 268° |
| 2026-05-06 11:05 | -44.02239 | 100.88120 | 36290 ft | 456 kts | 268° |
| 2026-05-06 11:06 | -44.02456 | 100.79314 | 36291 ft | 456 kts | 268° |
| 2026-05-06 11:06 | -44.02666 | 100.70512 | 36288 ft | 456 kts | 268° |
| 2026-05-06 11:07 | -44.02870 | 100.61696 | 36288 ft | 456 kts | 268° |
| 2026-05-06 11:07 | -44.03068 | 100.52876 | 36284 ft | 456 kts | 269° |
| 2026-05-06 11:08 | -44.03256 | 100.44137 | 36279 ft | 456 kts | 269° |
| 2026-05-06 11:08 | -44.03440 | 100.35330 | 36279 ft | 456 kts | 269° |
| 2026-05-06 11:09 | -44.03616 | 100.26522 | 36278 ft | 455 kts | 269° |
| 2026-05-06 11:09 | -44.03786 | 100.17716 | 36275 ft | 455 kts | 269° |
| 2026-05-06 11:10 | -44.03949 | 100.08910 | 36273 ft | 455 kts | 269° |
| 2026-05-06 11:10 | -44.04105 | 100.00117 | 36270 ft | 455 kts | 269° |
| 2026-05-06 11:11 | -44.04254 | 99.91335 | 36268 ft | 455 kts | 269° |
| 2026-05-06 11:11 | -44.04396 | 99.82578 | 36261 ft | 455 kts | 269° |
| 2026-05-06 11:12 | -44.04532 | 99.73789 | 36262 ft | 455 kts | 269° |
| 2026-05-06 11:12 | -44.04661 | 99.64998 | 36262 ft | 454 kts | 270° |
| 2026-05-06 11:13 | -44.04783 | 99.56217 | 36260 ft | 454 kts | 270° |
| 2026-05-06 11:13 | -44.04898 | 99.47425 | 36258 ft | 454 kts | 270° |
| 2026-05-06 11:14 | -44.05006 | 99.38702 | 36256 ft | 454 kts | 270° |
| 2026-05-06 11:14 | -44.05109 | 99.29885 | 36251 ft | 454 kts | 270° |
| 2026-05-06 11:15 | -44.05203 | 99.21151 | 36251 ft | 454 kts | 270° |
| 2026-05-06 11:15 | -44.05292 | 99.12380 | 36246 ft | 453 kts | 270° |
| 2026-05-06 11:16 | -44.05373 | 99.03609 | 36240 ft | 453 kts | 270° |
| 2026-05-06 11:16 | -44.05449 | 98.94825 | 36240 ft | 453 kts | 270° |
| 2026-05-06 11:17 | -44.05516 | 98.86125 | 36235 ft | 453 kts | 270° |
| 2026-05-06 11:17 | -44.05578 | 98.77362 | 36231 ft | 452 kts | 270° |
| 2026-05-06 11:18 | -44.05633 | 98.68609 | 36230 ft | 452 kts | 270° |
| 2026-05-06 11:18 | -44.05681 | 98.59911 | 36224 ft | 452 kts | 270° |
| 2026-05-06 11:19 | -44.05722 | 98.51171 | 36225 ft | 452 kts | 270° |
| 2026-05-06 11:19 | -44.05757 | 98.42435 | 36221 ft | 452 kts | 270° |
| 2026-05-06 11:20 | -44.05785 | 98.33669 | 36220 ft | 452 kts | 271° |
| 2026-05-06 11:20 | -44.05806 | 98.24917 | 36219 ft | 452 kts | 271° |
| 2026-05-06 11:21 | -44.05821 | 98.16183 | 36213 ft | 452 kts | 271° |
| 2026-05-06 11:21 | -44.05829 | 98.07428 | 36209 ft | 452 kts | 271° |
| 2026-05-06 11:22 | -44.05831 | 97.98739 | 36207 ft | 452 kts | 271° |
| 2026-05-06 11:22 | -44.05825 | 97.89997 | 36205 ft | 452 kts | 271° |
| 2026-05-06 11:23 | -44.05814 | 97.81223 | 36204 ft | 452 kts | 271° |
| 2026-05-06 11:23 | -44.05795 | 97.72530 | 36202 ft | 452 kts | 271° |
| 2026-05-06 11:24 | -44.05770 | 97.63779 | 36196 ft | 452 kts | 271° |
| 2026-05-06 11:24 | -44.05738 | 97.55044 | 36196 ft | 452 kts | 271° |
| 2026-05-06 11:25 | -44.05700 | 97.46354 | 36193 ft | 452 kts | 271° |
| 2026-05-06 11:25 | -44.05655 | 97.37618 | 36189 ft | 451 kts | 271° |
| 2026-05-06 11:26 | -44.05603 | 97.28885 | 36185 ft | 451 kts | 271° |
| 2026-05-06 11:26 | -44.05544 | 97.20157 | 36180 ft | 451 kts | 271° |
| 2026-05-06 11:27 | -44.05480 | 97.11422 | 36180 ft | 451 kts | 272° |
| 2026-05-06 11:27 | -44.05408 | 97.02708 | 36175 ft | 450 kts | 272° |
| 2026-05-06 11:28 | -44.05332 | 96.94014 | 36175 ft | 450 kts | 272° |
| 2026-05-06 11:28 | -44.05252 | 96.85302 | 36171 ft | 450 kts | 272° |
| 2026-05-06 11:29 | -44.05168 | 96.76657 | 36168 ft | 450 kts | 272° |
| 2026-05-06 11:29 | -44.05077 | 96.67929 | 36164 ft | 450 kts | 272° |
| 2026-05-06 11:30 | -44.04898 | 96.59231 | 36161 ft | 449 kts | 274° |
| 2026-05-06 11:30 | -44.04721 | 96.50542 | 36156 ft | 450 kts | 272° |
| 2026-05-06 11:31 | -44.04589 | 96.41896 | 36157 ft | 450 kts | 272° |
| 2026-05-06 11:31 | -44.04435 | 96.33211 | 36149 ft | 450 kts | 272° |
| 2026-05-06 11:32 | -44.04268 | 96.24511 | 36145 ft | 450 kts | 272° |
| 2026-05-06 11:32 | -44.04093 | 96.15822 | 36144 ft | 450 kts | 272° |
| 2026-05-06 11:33 | -44.03908 | 96.07115 | 36140 ft | 450 kts | 272° |
| 2026-05-06 11:33 | -44.03714 | 95.98410 | 36137 ft | 450 kts | 273° |
| 2026-05-06 11:34 | -44.03515 | 95.89749 | 36136 ft | 450 kts | 273° |
| 2026-05-06 11:34 | -44.03308 | 95.81047 | 36136 ft | 450 kts | 273° |
| 2026-05-06 11:35 | -44.03093 | 95.72322 | 36135 ft | 450 kts | 273° |
| 2026-05-06 11:35 | -44.02911 | 95.65102 | 36131 ft | 450 kts | 273° |
| 2026-05-06 11:36 | -44.02685 | 95.56416 | 36130 ft | 450 kts | 273° |
| 2026-05-06 11:36 | -44.02453 | 95.47735 | 36126 ft | 450 kts | 273° |
| 2026-05-06 11:37 | -44.02214 | 95.39037 | 36124 ft | 450 kts | 273° |
| 2026-05-06 11:37 | -44.01968 | 95.30339 | 36116 ft | 450 kts | 273° |
| 2026-05-06 11:38 | -44.01717 | 95.21679 | 36118 ft | 450 kts | 273° |
| 2026-05-06 11:38 | -44.01459 | 95.12991 | 36111 ft | 451 kts | 273° |
| 2026-05-06 11:39 | -44.01193 | 95.04271 | 36110 ft | 451 kts | 273° |
| 2026-05-06 11:39 | -44.00921 | 94.95572 | 36107 ft | 451 kts | 273° |
| 2026-05-06 11:40 | -44.00640 | 94.86828 | 36104 ft | 452 kts | 274° |
| 2026-05-06 11:40 | -44.00354 | 94.78097 | 36104 ft | 452 kts | 274° |
| 2026-05-06 11:41 | -44.00063 | 94.69429 | 36102 ft | 452 kts | 274° |
| 2026-05-06 11:41 | -43.99762 | 94.60669 | 36100 ft | 453 kts | 274° |
| 2026-05-06 11:42 | -43.99455 | 94.51926 | 36093 ft | 453 kts | 274° |
| 2026-05-06 11:42 | -43.99144 | 94.43242 | 36093 ft | 453 kts | 274° |
| 2026-05-06 11:43 | -43.98821 | 94.34440 | 36087 ft | 454 kts | 274° |
| 2026-05-06 11:43 | -43.98496 | 94.25755 | 36084 ft | 454 kts | 274° |
| 2026-05-06 11:44 | -43.97992 | 94.12606 | 36084 ft | 454 kts | 274° |
| 2026-05-06 11:44 | -43.97647 | 94.03847 | 36075 ft | 454 kts | 274° |
| 2026-05-06 11:45 | -43.97296 | 93.95072 | 36075 ft | 455 kts | 274° |
| 2026-05-06 11:45 | -43.96940 | 93.86361 | 36069 ft | 455 kts | 274° |
| 2026-05-06 11:46 | -43.96575 | 93.77590 | 36070 ft | 455 kts | 274° |
| 2026-05-06 11:46 | -43.96203 | 93.68820 | 36063 ft | 455 kts | 274° |
| 2026-05-06 11:47 | -43.95823 | 93.60031 | 36063 ft | 456 kts | 274° |
| 2026-05-06 11:47 | -43.95438 | 93.51255 | 36058 ft | 456 kts | 274° |
| 2026-05-06 11:48 | -43.95043 | 93.42436 | 36053 ft | 456 kts | 274° |
| 2026-05-06 11:48 | -43.94646 | 93.33703 | 36053 ft | 457 kts | 274° |
| 2026-05-06 11:49 | -43.94239 | 93.24907 | 36058 ft | 457 kts | 274° |
| 2026-05-06 11:49 | -43.93826 | 93.16110 | 36053 ft | 457 kts | 274° |
| 2026-05-06 11:50 | -43.93404 | 93.07288 | 36051 ft | 458 kts | 274° |
| 2026-05-06 11:50 | -43.92977 | 92.98497 | 36049 ft | 458 kts | 274° |
| 2026-05-06 11:51 | -43.92542 | 92.89690 | 36047 ft | 458 kts | 274° |
| 2026-05-06 11:51 | -43.92100 | 92.80881 | 36047 ft | 459 kts | 274° |
| 2026-05-06 11:52 | -43.91650 | 92.72027 | 36040 ft | 459 kts | 275° |
| 2026-05-06 11:52 | -43.91192 | 92.63170 | 36034 ft | 459 kts | 275° |
| 2026-05-06 11:53 | -43.90729 | 92.54343 | 36029 ft | 459 kts | 275° |
| 2026-05-06 11:53 | -43.90258 | 92.45501 | 36013 ft | 460 kts | 275° |
| 2026-05-06 11:54 | -43.89780 | 92.36657 | 36021 ft | 460 kts | 275° |
| 2026-05-06 11:54 | -43.89295 | 92.27803 | 36010 ft | 460 kts | 275° |
| 2026-05-06 11:55 | -43.88806 | 92.19003 | 36010 ft | 460 kts | 275° |
| 2026-05-06 11:55 | -43.88307 | 92.10150 | 36008 ft | 460 kts | 275° |
| 2026-05-06 11:56 | -43.87802 | 92.01307 | 36003 ft | 460 kts | 275° |
| 2026-05-06 11:56 | -43.87289 | 91.92447 | 35999 ft | 461 kts | 275° |
| 2026-05-06 11:57 | -43.86772 | 91.83641 | 36001 ft | 461 kts | 275° |
| 2026-05-06 11:57 | -43.86244 | 91.74777 | 36000 ft | 461 kts | 275° |
| 2026-05-06 11:58 | -43.85709 | 91.65900 | 35989 ft | 462 kts | 275° |
| 2026-05-06 11:58 | -43.85168 | 91.57032 | 35997 ft | 462 kts | 275° |
| 2026-05-06 11:59 | -43.84619 | 91.48153 | 35989 ft | 463 kts | 275° |
| 2026-05-06 11:59 | -43.84062 | 91.39265 | 35984 ft | 463 kts | 275° |
| 2026-05-06 12:00 | -43.83499 | 91.30389 | 35986 ft | 463 kts | 275° |
| 2026-05-06 12:00 | -43.82932 | 91.21545 | 35979 ft | 463 kts | 275° |
| 2026-05-06 12:01 | -43.82354 | 91.12657 | 35981 ft | 463 kts | 275° |
| 2026-05-06 12:01 | -43.81768 | 91.03755 | 35971 ft | 464 kts | 275° |
| 2026-05-06 12:02 | -43.81177 | 90.94862 | 35971 ft | 464 kts | 275° |
| 2026-05-06 12:02 | -43.80576 | 90.85948 | 35979 ft | 464 kts | 275° |
| 2026-05-06 12:03 | -43.79973 | 90.77100 | 35972 ft | 464 kts | 275° |
| 2026-05-06 12:03 | -43.79360 | 90.68196 | 35969 ft | 464 kts | 275° |
| 2026-05-06 12:04 | -43.78739 | 90.59300 | 35962 ft | 465 kts | 275° |
| 2026-05-06 12:04 | -43.78115 | 90.50445 | 35970 ft | 465 kts | 275° |
| 2026-05-06 12:05 | -43.77480 | 90.41543 | 35971 ft | 465 kts | 275° |
| 2026-05-06 12:05 | -43.76839 | 90.32640 | 35967 ft | 465 kts | 275° |
| 2026-05-06 12:06 | -43.76189 | 90.23730 | 35970 ft | 465 kts | 276° |
| 2026-05-06 12:06 | -43.75533 | 90.14825 | 35960 ft | 465 kts | 276° |
| 2026-05-06 12:07 | -43.75315 | 90.11885 | 35956 ft | 465 kts | 276° |